sensor_id;sensor_type;location;lat;lon;timestamp;pressure;altitude;pressure_sealevel;temperature;humidity
46836;BME280;32573;51.290;6.926;2022-12-10T00:01:48;99383.78;;;0.28;100.00
46836;BME280;32573;51.290;6.926;2022-12-10T00:04:17;99375.78;;;0.24;100.00
46836;BME280;32573;51.290;6.926;2022-12-10T00:06:46;99381.56;;;0.19;100.00
46836;BME280;32573;51.290;6.926;2022-12-10T00:09:25;99381.38;;;0.16;100.00
46836;BME280;32573;51.290;6.926;2022-12-10T00:11:54;99388.06;;;0.13;100.00
46836;BME280;32573;51.290;6.926;2022-12-10T00:14:24;99380.09;;;0.08;100.00
46836;BME280;32573;51.290;6.926;2022-12-10T00:16:53;99377.34;;;0.05;100.00
46836;BME280;32573;51.290;6.926;2022-12-10T00:19:22;99377.16;;;0.02;100.00
46836;BME280;32573;51.290;6.926;2022-12-10T00:21:52;99376.09;;;-0.02;100.00
46836;BME280;32573;51.290;6.926;2022-12-10T00:24:23;99376.81;;;-0.04;100.00
46836;BME280;32573;51.290;6.926;2022-12-10T00:26:51;99378.25;;;-0.09;100.00
46836;BME280;32573;51.290;6.926;2022-12-10T00:29:20;99379.84;;;-0.11;100.00
46836;BME280;32573;51.290;6.926;2022-12-10T00:31:48;99389.13;;;-0.13;100.00
46836;BME280;32573;51.290;6.926;2022-12-10T00:34:17;99379.56;;;-0.16;100.00
46836;BME280;32573;51.290;6.926;2022-12-10T00:36:48;99375.94;;;-0.19;100.00
46836;BME280;32573;51.290;6.926;2022-12-10T00:39:18;99380.13;;;-0.22;100.00
46836;BME280;32573;51.290;6.926;2022-12-10T00:41:49;99377.38;;;-0.25;100.00
46836;BME280;32573;51.290;6.926;2022-12-10T00:44:19;99379.75;;;-0.28;100.00
46836;BME280;32573;51.290;6.926;2022-12-10T00:46:48;99379.56;;;-0.31;100.00
46836;BME280;32573;51.290;6.926;2022-12-10T00:49:17;99378.59;;;-0.33;100.00
46836;BME280;32573;51.290;6.926;2022-12-10T00:51:50;99369.03;;;-0.35;100.00
46836;BME280;32573;51.290;6.926;2022-12-10T00:54:19;99376.56;;;-0.38;100.00
46836;BME280;32573;51.290;6.926;2022-12-10T00:56:49;99379.84;;;-0.41;100.00
46836;BME280;32573;51.290;6.926;2022-12-10T00:59:18;99383.94;;;-0.45;100.00
46836;BME280;32573;51.290;6.926;2022-12-10T01:01:47;99382.13;;;-0.46;100.00
46836;BME280;32573;51.290;6.926;2022-12-10T01:04:19;99385.41;;;-0.48;100.00
46836;BME280;32573;51.290;6.926;2022-12-10T01:06:50;99386.22;;;-0.49;100.00
46836;BME280;32573;51.290;6.926;2022-12-10T01:09:23;99380.91;;;-0.52;100.00
46836;BME280;32573;51.290;6.926;2022-12-10T01:11:57;99383.38;;;-0.54;100.00
46836;BME280;32573;51.290;6.926;2022-12-10T01:14:30;99386.66;;;-0.56;100.00
46836;BME280;32573;51.290;6.926;2022-12-10T01:17:01;99385.69;;;-0.58;100.00
46836;BME280;32573;51.290;6.926;2022-12-10T01:19:31;99388.06;;;-0.61;100.00
46836;BME280;32573;51.290;6.926;2022-12-10T01:22:01;99393.09;;;-0.63;100.00
46836;BME280;32573;51.290;6.926;2022-12-10T01:24:36;99388.78;;;-0.64;100.00
46836;BME280;32573;51.290;6.926;2022-12-10T01:27:08;99397.19;;;-0.67;100.00
46836;BME280;32573;51.290;6.926;2022-12-10T01:29:37;99393.63;;;-0.69;100.00
46836;BME280;32573;51.290;6.926;2022-12-10T01:32:08;99391.88;;;-0.70;100.00
46836;BME280;32573;51.290;6.926;2022-12-10T01:34:38;99401.94;;;-0.73;100.00
46836;BME280;32573;51.290;6.926;2022-12-10T01:37:10;99401.78;;;-0.76;100.00
46836;BME280;32573;51.290;6.926;2022-12-10T01:39:39;99403.34;;;-0.78;100.00
46836;BME280;32573;51.290;6.926;2022-12-10T01:42:13;99404.97;;;-0.80;100.00
46836;BME280;32573;51.290;6.926;2022-12-10T01:45:02;99404.00;;;-0.82;100.00
46836;BME280;32573;51.290;6.926;2022-12-10T01:47:33;99414.06;;;-0.85;100.00
46836;BME280;32573;51.290;6.926;2022-12-10T01:50:06;99410.59;;;-0.85;100.00
46836;BME280;32573;51.290;6.926;2022-12-10T01:52:37;99419.88;;;-0.88;100.00
46836;BME280;32573;51.290;6.926;2022-12-10T01:55:44;99421.50;;;-0.90;100.00
46836;BME280;32573;51.290;6.926;2022-12-10T01:58:15;99425.53;;;-0.93;100.00
46836;BME280;32573;51.290;6.926;2022-12-10T02:01:11;99419.44;;;-0.95;100.00
46836;BME280;32573;51.290;6.926;2022-12-10T02:03:51;99432.25;;;-0.95;100.00
46836;BME280;32573;51.290;6.926;2022-12-10T02:06:32;99427.06;;;-0.97;100.00
46836;BME280;32573;51.290;6.926;2022-12-10T02:09:12;99431.31;;;-0.97;100.00
46836;BME280;32573;51.290;6.926;2022-12-10T02:11:49;99429.50;;;-0.98;100.00
46836;BME280;32573;51.290;6.926;2022-12-10T02:14:29;99440.66;;;-0.98;100.00
46836;BME280;32573;51.290;6.926;2022-12-10T02:17:02;99449.28;;;-0.97;100.00
46836;BME280;32573;51.290;6.926;2022-12-10T02:19:51;99437.31;;;-0.97;100.00
46836;BME280;32573;51.290;6.926;2022-12-10T02:22:26;99423.59;;;-0.97;100.00
46836;BME280;32573;51.290;6.926;2022-12-10T02:24:58;99433.94;;;-0.96;100.00
46836;BME280;32573;51.290;6.926;2022-12-10T02:27:32;99422.81;;;-0.96;100.00
46836;BME280;32573;51.290;6.926;2022-12-10T02:30:06;99426.19;;;-0.97;100.00
46836;BME280;32573;51.290;6.926;2022-12-10T02:32:38;99416.69;;;-0.98;100.00
46836;BME280;32573;51.290;6.926;2022-12-10T02:35:13;99417.56;;;-0.98;100.00
46836;BME280;32573;51.290;6.926;2022-12-10T02:37:47;99431.22;;;-0.99;100.00
46836;BME280;32573;51.290;6.926;2022-12-10T02:40:23;99427.06;;;-0.97;100.00
46836;BME280;32573;51.290;6.926;2022-12-10T02:42:54;99417.66;;;-0.96;100.00
46836;BME280;32573;51.290;6.926;2022-12-10T02:45:27;99427.94;;;-0.96;100.00
46836;BME280;32573;51.290;6.926;2022-12-10T02:48:00;99421.22;;;-0.94;100.00
46836;BME280;32573;51.290;6.926;2022-12-10T02:50:36;99428.13;;;-0.93;100.00
46836;BME280;32573;51.290;6.926;2022-12-10T02:53:06;99422.97;;;-0.93;100.00
46836;BME280;32573;51.290;6.926;2022-12-10T02:55:47;99416.25;;;-0.91;100.00
46836;BME280;32573;51.290;6.926;2022-12-10T02:58:23;99418.94;;;-0.90;100.00
46836;BME280;32573;51.290;6.926;2022-12-10T03:00:58;99426.72;;;-0.88;100.00
46836;BME280;32573;51.290;6.926;2022-12-10T03:03:39;99423.38;;;-0.87;100.00
46836;BME280;32573;51.290;6.926;2022-12-10T03:06:16;99429.56;;;-0.83;100.00
46836;BME280;32573;51.290;6.926;2022-12-10T03:08:49;99434.00;;;-0.81;100.00
46836;BME280;32573;51.290;6.926;2022-12-10T03:11:21;99440.13;;;-0.79;100.00
46836;BME280;32573;51.290;6.926;2022-12-10T03:13:56;99437.66;;;-0.77;100.00
46836;BME280;32573;51.290;6.926;2022-12-10T03:16:33;99435.97;;;-0.77;100.00
46836;BME280;32573;51.290;6.926;2022-12-10T03:19:07;99442.97;;;-0.74;100.00
46836;BME280;32573;51.290;6.926;2022-12-10T03:21:41;99441.47;;;-0.71;100.00
46836;BME280;32573;51.290;6.926;2022-12-10T03:24:10;99441.63;;;-0.68;100.00
46836;BME280;32573;51.290;6.926;2022-12-10T03:26:40;99441.03;;;-0.63;100.00
46836;BME280;32573;51.290;6.926;2022-12-10T03:29:14;99456.56;;;-0.62;100.00
46836;BME280;32573;51.290;6.926;2022-12-10T03:31:45;99442.19;;;-0.58;100.00
46836;BME280;32573;51.290;6.926;2022-12-10T03:34:14;99444.16;;;-0.54;100.00
46836;BME280;32573;51.290;6.926;2022-12-10T03:36:43;99445.94;;;-0.53;100.00
46836;BME280;32573;51.290;6.926;2022-12-10T03:39:12;99451.25;;;-0.50;100.00
46836;BME280;32573;51.290;6.926;2022-12-10T03:41:41;99449.66;;;-0.48;100.00
46836;BME280;32573;51.290;6.926;2022-12-10T03:44:10;99458.34;;;-0.46;100.00
46836;BME280;32573;51.290;6.926;2022-12-10T03:46:39;99461.09;;;-0.43;100.00
46836;BME280;32573;51.290;6.926;2022-12-10T03:49:09;99462.09;;;-0.41;100.00
46836;BME280;32573;51.290;6.926;2022-12-10T03:51:38;99458.75;;;-0.40;100.00
46836;BME280;32573;51.290;6.926;2022-12-10T03:54:06;99458.09;;;-0.36;100.00
46836;BME280;32573;51.290;6.926;2022-12-10T03:56:34;99465.91;;;-0.34;100.00
46836;BME280;32573;51.290;6.926;2022-12-10T03:59:07;99454.06;;;-0.32;100.00
46836;BME280;32573;51.290;6.926;2022-12-10T04:01:35;99458.56;;;-0.28;100.00
46836;BME280;32573;51.290;6.926;2022-12-10T04:04:04;99454.50;;;-0.25;100.00
46836;BME280;32573;51.290;6.926;2022-12-10T04:06:36;99477.72;;;-0.23;100.00
46836;BME280;32573;51.290;6.926;2022-12-10T04:09:05;99450.31;;;-0.23;100.00
46836;BME280;32573;51.290;6.926;2022-12-10T04:11:33;99446.06;;;-0.22;100.00
46836;BME280;32573;51.290;6.926;2022-12-10T04:14:02;99447.94;;;-0.19;100.00
46836;BME280;32573;51.290;6.926;2022-12-10T04:16:59;99462.66;;;-0.17;100.00
46836;BME280;32573;51.290;6.926;2022-12-10T04:19:28;99452.44;;;-0.15;100.00
46836;BME280;32573;51.290;6.926;2022-12-10T04:21:58;99448.28;;;-0.13;100.00
46836;BME280;32573;51.290;6.926;2022-12-10T04:24:58;99445.88;;;-0.10;100.00
46836;BME280;32573;51.290;6.926;2022-12-10T04:27:44;99444.28;;;-0.08;100.00
46836;BME280;32573;51.290;6.926;2022-12-10T04:30:12;99445.16;;;-0.08;100.00
46836;BME280;32573;51.290;6.926;2022-12-10T04:32:41;99441.88;;;-0.05;100.00
46836;BME280;32573;51.290;6.926;2022-12-10T04:35:10;99443.69;;;-0.04;100.00
46836;BME280;32573;51.290;6.926;2022-12-10T04:37:40;99441.19;;;-0.03;100.00
46836;BME280;32573;51.290;6.926;2022-12-10T04:40:09;99442.97;;;-0.02;100.00
46836;BME280;32573;51.290;6.926;2022-12-10T04:42:38;99442.09;;;-0.02;100.00
46836;BME280;32573;51.290;6.926;2022-12-10T04:45:07;99448.22;;;0.00;100.00
46836;BME280;32573;51.290;6.926;2022-12-10T04:47:36;99449.00;;;-0.01;100.00
46836;BME280;32573;51.290;6.926;2022-12-10T04:50:05;99449.81;;;-0.02;100.00
46836;BME280;32573;51.290;6.926;2022-12-10T04:52:34;99456.72;;;-0.01;100.00
46836;BME280;32573;51.290;6.926;2022-12-10T04:55:05;99451.47;;;-0.03;100.00
46836;BME280;32573;51.290;6.926;2022-12-10T04:57:33;99453.25;;;-0.02;100.00
46836;BME280;32573;51.290;6.926;2022-12-10T05:00:03;99459.28;;;-0.01;100.00
46836;BME280;32573;51.290;6.926;2022-12-10T05:02:32;99457.53;;;-0.02;100.00
46836;BME280;32573;51.290;6.926;2022-12-10T05:05:07;99458.31;;;-0.03;100.00
46836;BME280;32573;51.290;6.926;2022-12-10T05:07:36;99448.81;;;-0.04;100.00
46836;BME280;32573;51.290;6.926;2022-12-10T05:10:06;99455.56;;;-0.06;100.00
46836;BME280;32573;51.290;6.926;2022-12-10T05:12:35;99465.84;;;-0.06;100.00
46836;BME280;32573;51.290;6.926;2022-12-10T05:15:05;99453.81;;;-0.07;100.00
46836;BME280;32573;51.290;6.926;2022-12-10T05:17:34;99457.31;;;-0.05;100.00
46836;BME280;32573;51.290;6.926;2022-12-10T05:20:03;99463.28;;;-0.06;100.00
46836;BME280;32573;51.290;6.926;2022-12-10T05:22:32;99461.59;;;-0.06;100.00
46836;BME280;32573;51.290;6.926;2022-12-10T05:25:20;99467.59;;;-0.05;100.00
46836;BME280;32573;51.290;6.926;2022-12-10T05:27:51;99453.97;;;-0.04;100.00
46836;BME280;32573;51.290;6.926;2022-12-10T05:30:19;99453.97;;;-0.04;100.00
46836;BME280;32573;51.290;6.926;2022-12-10T05:32:48;99457.31;;;-0.05;100.00
46836;BME280;32573;51.290;6.926;2022-12-10T05:35:16;99453.00;;;-0.06;100.00
46836;BME280;32573;51.290;6.926;2022-12-10T05:37:45;99449.53;;;-0.07;100.00
46836;BME280;32573;51.290;6.926;2022-12-10T05:40:13;99459.81;;;-0.07;100.00
46836;BME280;32573;51.290;6.926;2022-12-10T05:42:43;99450.25;;;-0.09;100.00
46836;BME280;32573;51.290;6.926;2022-12-10T05:45:11;99457.09;;;-0.10;100.00
46836;BME280;32573;51.290;6.926;2022-12-10T05:48:05;99459.56;;;-0.11;100.00
46836;BME280;32573;51.290;6.926;2022-12-10T05:50:36;99461.25;;;-0.12;100.00
46836;BME280;32573;51.290;6.926;2022-12-10T05:53:04;99459.44;;;-0.13;100.00
46836;BME280;32573;51.290;6.926;2022-12-10T05:55:33;99467.97;;;-0.14;100.00
46836;BME280;32573;51.290;6.926;2022-12-10T05:58:04;99462.72;;;-0.15;100.00
46836;BME280;32573;51.290;6.926;2022-12-10T06:00:32;99473.13;;;-0.14;100.00
46836;BME280;32573;51.290;6.926;2022-12-10T06:03:00;99484.28;;;-0.13;100.00
46836;BME280;32573;51.290;6.926;2022-12-10T06:05:29;99474.88;;;-0.13;100.00
46836;BME280;32573;51.290;6.926;2022-12-10T06:07:58;99471.44;;;-0.13;100.00
46836;BME280;32573;51.290;6.926;2022-12-10T06:10:28;99463.81;;;-0.12;100.00
46836;BME280;32573;51.290;6.926;2022-12-10T06:12:56;99477.44;;;-0.13;100.00
46836;BME280;32573;51.290;6.926;2022-12-10T06:15:26;99481.88;;;-0.10;100.00
46836;BME280;32573;51.290;6.926;2022-12-10T06:17:55;99474.09;;;-0.12;100.00
46836;BME280;32573;51.290;6.926;2022-12-10T06:20:25;99474.81;;;-0.14;100.00
46836;BME280;32573;51.290;6.926;2022-12-10T06:22:54;99478.97;;;-0.16;100.00
46836;BME280;32573;51.290;6.926;2022-12-10T06:25:22;99479.69;;;-0.19;100.00
46836;BME280;32573;51.290;6.926;2022-12-10T06:27:51;99485.53;;;-0.22;100.00
46836;BME280;32573;51.290;6.926;2022-12-10T06:30:19;99481.97;;;-0.24;100.00
46836;BME280;32573;51.290;6.926;2022-12-10T06:32:49;99506.78;;;-0.24;100.00
46836;BME280;32573;51.290;6.926;2022-12-10T06:35:18;99490.38;;;-0.26;100.00
46836;BME280;32573;51.290;6.926;2022-12-10T06:37:46;99488.88;;;-0.23;100.00
46836;BME280;32573;51.290;6.926;2022-12-10T06:40:15;99486.41;;;-0.21;100.00
46836;BME280;32573;51.290;6.926;2022-12-10T06:42:45;99498.47;;;-0.20;100.00
46836;BME280;32573;51.290;6.926;2022-12-10T06:45:13;99501.94;;;-0.19;100.00
46836;BME280;32573;51.290;6.926;2022-12-10T06:47:43;99513.00;;;-0.20;100.00
46836;BME280;32573;51.290;6.926;2022-12-10T06:50:13;99506.09;;;-0.22;100.00
46836;BME280;32573;51.290;6.926;2022-12-10T06:52:42;99510.25;;;-0.24;100.00
46836;BME280;32573;51.290;6.926;2022-12-10T06:55:11;99512.66;;;-0.27;100.00
46836;BME280;32573;51.290;6.926;2022-12-10T06:57:39;99519.56;;;-0.26;100.00
46836;BME280;32573;51.290;6.926;2022-12-10T07:00:09;99511.75;;;-0.27;100.00
46836;BME280;32573;51.290;6.926;2022-12-10T07:02:48;99520.25;;;-0.28;100.00
46836;BME280;32573;51.290;6.926;2022-12-10T07:05:18;99518.50;;;-0.29;100.00
46836;BME280;32573;51.290;6.926;2022-12-10T07:07:48;99521.94;;;-0.29;100.00
46836;BME280;32573;51.290;6.926;2022-12-10T07:10:16;99526.28;;;-0.28;100.00
46836;BME280;32573;51.290;6.926;2022-12-10T07:12:45;99526.28;;;-0.28;100.00
46836;BME280;32573;51.290;6.926;2022-12-10T07:15:14;99524.50;;;-0.29;100.00
46836;BME280;32573;51.290;6.926;2022-12-10T07:17:42;99514.94;;;-0.31;100.00
46836;BME280;32573;51.290;6.926;2022-12-10T07:20:12;99525.31;;;-0.30;100.00
46836;BME280;32573;51.290;6.926;2022-12-10T07:22:42;99533.03;;;-0.30;100.00
46836;BME280;32573;51.290;6.926;2022-12-10T07:25:10;99538.19;;;-0.30;100.00
46836;BME280;32573;51.290;6.926;2022-12-10T07:27:39;99531.25;;;-0.31;100.00
46836;BME280;32573;51.290;6.926;2022-12-10T07:30:09;99550.22;;;-0.29;100.00
46836;BME280;32573;51.290;6.926;2022-12-10T07:32:38;99538.34;;;-0.27;100.00
46836;BME280;32573;51.290;6.926;2022-12-10T07:35:06;99536.78;;;-0.25;100.00
46836;BME280;32573;51.290;6.926;2022-12-10T07:37:35;99530.00;;;-0.23;100.00
46836;BME280;32573;51.290;6.926;2022-12-10T07:40:07;99543.84;;;-0.20;100.00
46836;BME280;32573;51.290;6.926;2022-12-10T07:42:36;99538.91;;;-0.17;100.00
46836;BME280;32573;51.290;6.926;2022-12-10T07:45:05;99540.69;;;-0.16;100.00
46836;BME280;32573;51.290;6.926;2022-12-10T07:47:35;99551.13;;;-0.13;100.00
46836;BME280;32573;51.290;6.926;2022-12-10T07:50:04;99551.25;;;-0.12;100.00
46836;BME280;32573;51.290;6.926;2022-12-10T07:52:33;99544.50;;;-0.10;100.00
46836;BME280;32573;51.290;6.926;2022-12-10T07:55:07;99554.97;;;-0.07;100.00
46836;BME280;32573;51.290;6.926;2022-12-10T07:57:35;99557.63;;;-0.05;100.00
46836;BME280;32573;51.290;6.926;2022-12-10T08:00:05;99562.00;;;-0.04;100.00
46836;BME280;32573;51.290;6.926;2022-12-10T08:02:38;99560.41;;;-0.02;100.00
46836;BME280;32573;51.290;6.926;2022-12-10T08:05:07;99560.56;;;0.01;100.00
46836;BME280;32573;51.290;6.926;2022-12-10T08:07:35;99559.00;;;0.03;100.00
46836;BME280;32573;51.290;6.926;2022-12-10T08:10:07;99562.53;;;0.05;100.00
46836;BME280;32573;51.290;6.926;2022-12-10T08:12:36;99560.91;;;0.07;100.00
46836;BME280;32573;51.290;6.926;2022-12-10T08:15:05;99565.34;;;0.10;100.00
46836;BME280;32573;51.290;6.926;2022-12-10T08:17:34;99561.72;;;0.06;100.00
46836;BME280;32573;51.290;6.926;2022-12-10T08:20:04;99571.59;;;0.13;100.00
46836;BME280;32573;51.290;6.926;2022-12-10T08:22:33;99585.44;;;0.15;100.00
46836;BME280;32573;51.290;6.926;2022-12-10T08:25:02;99578.69;;;0.17;100.00
46836;BME280;32573;51.290;6.926;2022-12-10T08:27:33;99578.69;;;0.17;100.00
46836;BME280;32573;51.290;6.926;2022-12-10T08:30:02;99579.66;;;0.19;100.00
46836;BME280;32573;51.290;6.926;2022-12-10T08:32:31;99576.38;;;0.22;100.00
46836;BME280;32573;51.290;6.926;2022-12-10T08:35:01;99584.19;;;0.24;100.00
46836;BME280;32573;51.290;6.926;2022-12-10T08:37:29;99592.81;;;0.24;100.00
46836;BME280;32573;51.290;6.926;2022-12-10T08:39:57;99589.34;;;0.24;100.00
46836;BME280;32573;51.290;6.926;2022-12-10T08:42:26;99589.34;;;0.24;100.00
46836;BME280;32573;51.290;6.926;2022-12-10T08:44:56;99587.59;;;0.23;100.00
46836;BME280;32573;51.290;6.926;2022-12-10T08:47:25;99592.03;;;0.25;100.00
46836;BME280;32573;51.290;6.926;2022-12-10T08:49:53;99599.81;;;0.27;100.00
46836;BME280;32573;51.290;6.926;2022-12-10T08:52:22;99603.19;;;0.26;100.00
46836;BME280;32573;51.290;6.926;2022-12-10T08:54:51;99605.78;;;0.26;100.00
46836;BME280;32573;51.290;6.926;2022-12-10T08:57:20;99607.47;;;0.25;100.00
46836;BME280;32573;51.290;6.926;2022-12-10T08:59:48;99615.97;;;0.24;100.00
46836;BME280;32573;51.290;6.926;2022-12-10T09:02:18;99618.53;;;0.24;100.00
46836;BME280;32573;51.290;6.926;2022-12-10T09:04:47;99623.59;;;0.23;100.00
46836;BME280;32573;51.290;6.926;2022-12-10T09:07:16;99624.38;;;0.21;100.00
46836;BME280;32573;51.290;6.926;2022-12-10T09:09:45;99620.94;;;0.21;100.00
46836;BME280;32573;51.290;6.926;2022-12-10T09:12:14;99627.75;;;0.20;100.00
46836;BME280;32573;51.290;6.926;2022-12-10T09:14:44;99626.84;;;0.20;100.00
46836;BME280;32573;51.290;6.926;2022-12-10T09:17:12;99630.34;;;0.20;100.00
46836;BME280;32573;51.290;6.926;2022-12-10T09:19:42;99622.41;;;0.17;100.00
46836;BME280;32573;51.290;6.926;2022-12-10T09:22:10;99630.13;;;0.17;100.00
46836;BME280;32573;51.290;6.926;2022-12-10T09:24:40;99628.38;;;0.16;100.00
46836;BME280;32573;51.290;6.926;2022-12-10T09:27:08;99628.38;;;0.16;100.00
46836;BME280;32573;51.290;6.926;2022-12-10T09:29:37;99626.59;;;0.15;100.00
46836;BME280;32573;51.290;6.926;2022-12-10T09:32:05;99631.75;;;0.15;100.00
46836;BME280;32573;51.290;6.926;2022-12-10T09:34:34;99639.47;;;0.15;100.00
46836;BME280;32573;51.290;6.926;2022-12-10T09:37:05;99642.03;;;0.15;100.00
46836;BME280;32573;51.290;6.926;2022-12-10T09:39:35;99635.97;;;0.15;100.00
46836;BME280;32573;51.290;6.926;2022-12-10T09:42:13;99637.78;;;0.16;100.00
46836;BME280;32573;51.290;6.926;2022-12-10T09:44:53;99633.50;;;0.16;100.00
46836;BME280;32573;51.290;6.926;2022-12-10T09:47:28;99653.91;;;0.13;100.00
46836;BME280;32573;51.290;6.926;2022-12-10T09:50:04;99634.31;;;0.15;100.00
46836;BME280;32573;51.290;6.926;2022-12-10T09:52:43;99636.78;;;0.14;100.00
46836;BME280;32573;51.290;6.926;2022-12-10T09:55:17;99638.56;;;0.15;100.00
46836;BME280;32573;51.290;6.926;2022-12-10T09:57:48;99636.78;;;0.14;100.00
46836;BME280;32573;51.290;6.926;2022-12-10T10:00:21;99634.22;;;0.14;100.00
46836;BME280;32573;51.290;6.926;2022-12-10T10:02:51;99641.84;;;0.12;100.00
46836;BME280;32573;51.290;6.926;2022-12-10T10:05:22;99652.03;;;0.11;100.00
46836;BME280;32573;51.290;6.926;2022-12-10T10:07:55;99645.91;;;0.09;100.00
46836;BME280;32573;51.290;6.926;2022-12-10T10:10:27;99648.59;;;0.10;100.00
46836;BME280;32573;51.290;6.926;2022-12-10T10:12:58;99650.47;;;0.13;100.00
46836;BME280;32573;51.290;6.926;2022-12-10T10:15:31;99649.66;;;0.14;100.00
46836;BME280;32573;51.290;6.926;2022-12-10T10:18:04;99652.94;;;0.11;100.00
46836;BME280;32573;51.290;6.926;2022-12-10T10:20:37;99640.88;;;0.10;100.00
46836;BME280;32573;51.290;6.926;2022-12-10T10:23:08;99645.03;;;0.08;100.00
46836;BME280;32573;51.290;6.926;2022-12-10T10:25:40;99639.00;;;0.08;100.00
46836;BME280;32573;51.290;6.926;2022-12-10T10:28:11;99639.09;;;0.09;100.00
46836;BME280;32573;51.290;6.926;2022-12-10T10:30:42;99636.63;;;0.11;100.00
46836;BME280;32573;51.290;6.926;2022-12-10T10:33:13;99637.59;;;0.13;100.00
46836;BME280;32573;51.290;6.926;2022-12-10T10:35:44;99633.34;;;0.13;100.00
46836;BME280;32573;51.290;6.926;2022-12-10T10:38:18;99636.69;;;0.12;100.00
46836;BME280;32573;51.290;6.926;2022-12-10T10:40:50;99641.06;;;0.13;100.00
46836;BME280;32573;51.290;6.926;2022-12-10T10:43:22;99641.84;;;0.12;100.00
46836;BME280;32573;51.290;6.926;2022-12-10T10:45:52;99656.38;;;0.12;100.00
46836;BME280;32573;51.290;6.926;2022-12-10T10:48:24;99646.78;;;0.09;100.00
46836;BME280;32573;51.290;6.926;2022-12-10T10:50:54;99645.03;;;0.08;100.00
46836;BME280;32573;51.290;6.926;2022-12-10T10:53:30;99640.88;;;0.10;100.00
46836;BME280;32573;51.290;6.926;2022-12-10T10:56:07;99640.06;;;0.11;100.00
46836;BME280;32573;51.290;6.926;2022-12-10T10:58:56;99638.38;;;0.12;100.00
46836;BME280;32573;51.290;6.926;2022-12-10T11:01:26;99647.09;;;0.14;100.00
46836;BME280;32573;51.290;6.926;2022-12-10T11:04:11;99642.81;;;0.14;100.00
46836;BME280;32573;51.290;6.926;2022-12-10T11:06:41;99640.25;;;0.14;100.00
46836;BME280;32573;51.290;6.926;2022-12-10T11:09:19;99635.28;;;0.17;100.00
46836;BME280;32573;51.290;6.926;2022-12-10T11:11:50;99643.22;;;0.20;100.00
46836;BME280;32573;51.290;6.926;2022-12-10T11:14:24;99640.81;;;0.24;100.00
46836;BME280;32573;51.290;6.926;2022-12-10T11:17:01;99634.06;;;0.26;100.00
46836;BME280;32573;51.290;6.926;2022-12-10T11:19:29;99632.50;;;0.28;100.00
46836;BME280;32573;51.290;6.926;2022-12-10T11:22:16;99643.72;;;0.30;100.00
46836;BME280;32573;51.290;6.926;2022-12-10T11:24:47;99635.22;;;0.31;100.00
46836;BME280;32573;51.290;6.926;2022-12-10T11:27:30;99631.06;;;0.33;100.00
46836;BME280;32573;51.290;6.926;2022-12-10T11:30:03;99634.59;;;0.35;100.00
46836;BME280;32573;51.290;6.926;2022-12-10T11:32:49;99623.34;;;0.33;100.00
46836;BME280;32573;51.290;6.926;2022-12-10T11:35:35;99635.41;;;0.34;100.00
46836;BME280;32573;51.290;6.926;2022-12-10T11:38:16;99627.78;;;0.35;100.00
46836;BME280;32573;51.290;6.926;2022-12-10T11:40:52;99631.25;;;0.36;100.00
46836;BME280;32573;51.290;6.926;2022-12-10T11:43:42;99629.66;;;0.38;100.00
46836;BME280;32573;51.290;6.926;2022-12-10T11:46:26;99628.03;;;0.40;100.00
46836;BME280;32573;51.290;6.926;2022-12-10T11:49:09;99629.84;;;0.41;100.00
46836;BME280;32573;51.290;6.926;2022-12-10T11:51:45;99639.94;;;0.38;100.00
46836;BME280;32573;51.290;6.926;2022-12-10T11:57:18;99636.56;;;0.39;100.00
46836;BME280;32573;51.290;6.926;2022-12-10T11:59:56;99629.84;;;0.41;100.00
46836;BME280;32573;51.290;6.926;2022-12-10T12:03:00;99625.75;;;0.45;100.00
46836;BME280;32573;51.290;6.926;2022-12-10T12:05:45;99631.97;;;0.48;100.00
46836;BME280;32573;51.290;6.926;2022-12-10T12:08:23;99632.97;;;0.50;100.00
46836;BME280;32573;51.290;6.926;2022-12-10T12:11:04;99639.88;;;0.51;100.00
46836;BME280;32573;51.290;6.926;2022-12-10T12:13:47;99638.28;;;0.53;100.00
46836;BME280;32573;51.290;6.926;2022-12-10T12:16:25;99642.63;;;0.54;100.00
46836;BME280;32573;51.290;6.926;2022-12-10T12:18:58;99630.72;;;0.56;100.00
46836;BME280;32573;51.290;6.926;2022-12-10T12:21:27;99630.91;;;0.59;100.00
46836;BME280;32573;51.290;6.926;2022-12-10T12:23:59;99636.25;;;0.62;100.00
46836;BME280;32573;51.290;6.926;2022-12-10T12:26:32;99632.97;;;0.65;100.00
46836;BME280;32573;51.290;6.926;2022-12-10T12:29:13;99633.91;;;0.67;100.00
46836;BME280;32573;51.290;6.926;2022-12-10T12:31:46;99642.63;;;0.69;100.00
46836;BME280;32573;51.290;6.926;2022-12-10T12:34:21;99645.13;;;0.68;100.00
46836;BME280;32573;51.290;6.926;2022-12-10T12:36:50;99638.34;;;0.70;100.00
46836;BME280;32573;51.290;6.926;2022-12-10T12:39:23;99637.56;;;0.71;100.00
46836;BME280;32573;51.290;6.926;2022-12-10T12:42:00;99638.47;;;0.71;100.00
46836;BME280;32573;51.290;6.926;2022-12-10T12:44:40;99636.06;;;0.74;100.00
46836;BME280;32573;51.290;6.926;2022-12-10T12:47:21;99636.94;;;0.75;100.00
46836;BME280;32573;51.290;6.926;2022-12-10T12:49:51;99641.38;;;0.77;100.00
46836;BME280;32573;51.290;6.926;2022-12-10T12:52:29;99632.00;;;0.78;100.00
46836;BME280;32573;51.290;6.926;2022-12-10T12:55:05;99638.09;;;0.80;100.00
46836;BME280;32573;51.290;6.926;2022-12-10T12:57:43;99633.91;;;0.82;100.00
46836;BME280;32573;51.290;6.926;2022-12-10T13:00:17;99644.31;;;0.83;100.00
46836;BME280;32573;51.290;6.926;2022-12-10T13:02:53;99641.03;;;0.86;100.00
46836;BME280;32573;51.290;6.926;2022-12-10T13:05:26;99641.91;;;0.86;100.00
46836;BME280;32573;51.290;6.926;2022-12-10T13:08:23;99639.44;;;0.88;100.00
46836;BME280;32573;51.290;6.926;2022-12-10T13:10:58;99642.81;;;0.87;100.00
46836;BME280;32573;51.290;6.926;2022-12-10T13:13:31;99637.66;;;0.87;100.00
46836;BME280;32573;51.290;6.926;2022-12-10T13:16:35;99635.16;;;0.89;100.00
46836;BME280;32573;51.290;6.926;2022-12-10T13:19:24;99632.69;;;0.90;100.00
46836;BME280;32573;51.290;6.926;2022-12-10T13:22:02;99634.34;;;0.90;100.00
46836;BME280;32573;51.290;6.926;2022-12-10T13:25:05;99639.59;;;0.91;100.00
46836;BME280;32573;51.290;6.926;2022-12-10T13:27:35;99637.84;;;0.90;100.00